createdAt,value
2017-05-25T04:00:18.780Z,12.50
2017-05-25T04:02:47.074Z,12.50
2017-05-25T04:05:15.448Z,12.50
2017-05-25T04:07:43.810Z,12.50
2017-05-25T04:10:12.185Z,12.50
2017-05-25T04:12:40.577Z,12.50
2017-05-25T04:15:08.870Z,12.50
2017-05-25T04:17:37.156Z,12.50
2017-05-25T04:20:05.525Z,12.50
2017-05-25T04:22:33.852Z,12.50
2017-05-25T04:25:02.229Z,12.50
2017-05-25T04:27:30.565Z,12.50
2017-05-25T04:29:58.161Z,12.40
2017-05-25T04:32:26.470Z,12.50
2017-05-25T04:34:54.856Z,12.50
2017-05-25T04:37:23.171Z,12.60
2017-05-25T04:39:51.461Z,12.60
2017-05-25T04:42:19.898Z,12.60
2017-05-25T04:44:48.287Z,12.70
2017-05-25T04:47:16.605Z,12.70
2017-05-25T04:49:44.917Z,12.70
2017-05-25T04:52:13.269Z,12.70
2017-05-25T04:54:41.571Z,12.80
2017-05-25T04:57:09.938Z,12.80
2017-05-25T04:59:38.272Z,12.80
2017-05-25T05:02:06.586Z,12.90
2017-05-25T05:04:34.924Z,12.90
2017-05-25T05:07:03.307Z,13.00
2017-05-25T05:09:31.613Z,13.00
2017-05-25T05:11:59.980Z,13.00
2017-05-25T05:14:28.285Z,13.00
2017-05-25T05:16:56.632Z,13.10
2017-05-25T05:19:24.977Z,13.20
2017-05-25T05:21:53.312Z,13.20
2017-05-25T05:24:21.634Z,13.30
2017-05-25T05:26:50.004Z,13.30
2017-05-25T05:29:18.337Z,13.30
2017-05-25T05:31:46.644Z,13.40
2017-05-25T05:34:14.271Z,13.30
2017-05-25T05:36:42.613Z,13.50
2017-05-25T05:39:11.073Z,13.50
2017-05-25T05:41:39.372Z,13.60
2017-05-25T05:44:07.729Z,13.60
2017-05-25T05:46:36.085Z,13.60
2017-05-25T05:49:04.405Z,13.70
2017-05-25T05:51:32.938Z,13.70
2017-05-25T05:54:01.308Z,13.70
2017-05-25T05:56:29.622Z,13.80
2017-05-25T05:58:57.928Z,13.80
2017-05-25T06:01:26.328Z,13.90
2017-05-25T06:03:54.667Z,13.90
2017-05-25T06:06:22.985Z,14.00
2017-05-25T06:08:50.616Z,13.90
2017-05-25T06:11:18.936Z,14.00
2017-05-25T06:13:47.241Z,14.10
2017-05-25T06:16:15.612Z,14.20
2017-05-25T06:18:43.949Z,14.20
2017-05-25T06:21:12.322Z,14.20
2017-05-25T06:23:40.716Z,14.30
2017-05-25T06:26:09.010Z,14.30
2017-05-25T06:28:37.864Z,14.40
2017-05-25T06:31:06.180Z,14.50
2017-05-25T06:36:27.875Z,14.50
2017-05-25T06:38:56.281Z,14.70
2017-05-25T06:41:24.604Z,14.70
2017-05-25T06:43:52.953Z,14.80
2017-05-25T06:46:21.305Z,14.80
2017-05-25T06:48:49.625Z,14.90
2017-05-25T06:51:17.944Z,14.90
2017-05-25T06:53:46.336Z,15.00
2017-05-25T06:56:14.633Z,15.00
2017-05-25T06:58:42.948Z,15.00
2017-05-25T07:01:11.292Z,15.00
2017-05-25T07:03:39.620Z,15.10
2017-05-25T07:06:07.141Z,15.00
2017-05-25T07:08:35.488Z,15.20
2017-05-25T07:11:03.841Z,15.20
2017-05-25T07:13:32.153Z,15.30
2017-05-25T07:16:00.535Z,15.40
2017-05-25T07:18:28.869Z,15.40
2017-05-25T07:20:57.188Z,15.50
2017-05-25T07:23:25.544Z,15.60
2017-05-25T07:25:53.869Z,15.70
2017-05-25T07:28:22.195Z,15.80
2017-05-25T07:30:50.588Z,15.80
2017-05-25T07:33:18.876Z,15.90
2017-05-25T07:35:47.198Z,15.90
2017-05-25T07:38:15.596Z,16.00
2017-05-25T07:40:43.891Z,16.00
2017-05-25T07:43:12.238Z,16.10
2017-05-25T07:45:40.614Z,16.10
2017-05-25T07:48:09.011Z,16.10
2017-05-25T07:50:37.332Z,16.10
2017-05-25T07:53:05.690Z,16.10
2017-05-25T07:55:33.987Z,16.20
2017-05-25T07:58:02.318Z,16.10
2017-05-25T08:00:30.667Z,16.10
2017-05-25T08:02:58.202Z,16.10
